Saturday, September 22, 2018, 10:36 PM EDT
Back to Local

KMMU, Morristown Municipal

Location: Morristown, NJ, United States Lat: 40.8
Local Time: 10:36 PM EDT ( 2:36 GMT) Lon: -74.417
Time Zone: US/Eastern Elev: 187 ft

Show me the last for .
Show Decoded

2018-09-22 22:15 METAR KMMU 230215Z AUTO 00000KT 10SM CLR 15/13 A3021 RMK AO2 =
2018-09-22 21:45 METAR KMMU 230145Z 06004KT 10SM BKN120 15/14 A3021 =
2018-09-22 20:45 METAR KMMU 230045Z 03004KT 10SM BKN150 16/14 A3020 =
2018-09-22 19:45 METAR KMMU 222345Z 00000KT 10SM BKN150 16/15 A3020 =
2018-09-22 18:45 METAR KMMU 222245Z 00000KT 10SM BKN120 17/15 A3019 =
2018-09-22 17:45 METAR KMMU 222145Z 00000KT 10SM BKN120 18/14 A3017 =
2018-09-22 16:45 METAR KMMU 222045Z 00000KT 10SM BKN120 19/13 A3017 =
2018-09-22 15:45 METAR KMMU 221945Z 01005KT 10SM BKN120 19/13 A3016 =
2018-09-22 14:45 METAR KMMU 221845Z 34005KT 15SM BKN120 20/12 A3015 =
2018-09-22 13:45 METAR KMMU 221745Z 03007KT 10SM FEW050 BKN250 20/12 A3015 =
2018-09-22 12:45 METAR KMMU 221645Z 01010G15KT 10SM FEW050 SCT250 20/12 A3015 =
2018-09-22 11:45 METAR KMMU 221545Z 01012G18KT 10SM FEW050 SCT250 20/11 A3014 =
2018-09-22 10:45 METAR KMMU 221445Z 35012G18KT 10SM FEW050 SCT250 20/12 A3015 =
2018-09-22 09:45 METAR KMMU 221345Z 02012G21KT 10SM FEW050 SCT250 20/12 A3013 =
2018-09-22 08:45 METAR KMMU 221245Z 36007G14KT 10SM SCT250 19/14 A3010 =
2018-09-22 07:45 METAR KMMU 221145Z 33009G16KT 10SM SCT250 20/15 A3007 =
2018-09-22 06:45 METAR KMMU 221045Z 32009G14KT 10SM SCT036 SCT250 23/18 A3003 =
2018-09-22 06:35 METAR KMMU 221035Z AUTO 30004KT 10SM BKN036 22/18 A3002 RMK AO2 =
2018-09-22 06:15 METAR KMMU 221015Z AUTO 32005KT 10SM SCT033 22/19 A3000 RMK AO2 =
2018-09-22 05:55 METAR KMMU 220955Z AUTO 00000KT 10SM CLR 22/21 A2999 RMK AO2 =
2018-09-22 05:35 METAR KMMU 220935Z AUTO 26005KT 10SM CLR 22/21 A2997 RMK AO2 =
2018-09-22 05:15 METAR KMMU 220915Z AUTO 25006KT 10SM CLR 22/21 A2997 RMK AO2 =
2018-09-22 04:55 METAR KMMU 220855Z AUTO 25006KT 10SM CLR 22/21 A2996 RMK AO2 =
2018-09-22 04:35 METAR KMMU 220835Z AUTO 24006KT 10SM SCT065 22/21 A2995 RMK AO2 =
2018-09-22 04:15 METAR KMMU 220815Z AUTO 25005KT 10SM BKN065 22/21 A2995 RMK AO2 =
2018-09-22 03:55 METAR KMMU 220755Z AUTO 24006KT 10SM SCT026 BKN065 22/21 A2995 RMK AO2 =
2018-09-22 03:35 METAR KMMU 220735Z AUTO 25008KT 10SM SCT021 BKN028 SCT035 23/21 A2995 RMK AO2 =
2018-09-22 03:15 METAR KMMU 220715Z AUTO 26005KT 10SM SCT019 BKN025 BKN034 22/21 A2995 RMK AO2 =
2018-09-22 02:55 METAR KMMU 220655Z AUTO 22008KT 10SM SCT026 SCT032 22/21 A2994 RMK AO2 =
2018-09-22 02:35 METAR KMMU 220635Z AUTO 22006KT 10SM SCT022 SCT028 22/20 A2995 RMK AO2 =
2018-09-22 02:15 METAR KMMU 220615Z AUTO 22004KT 10SM OVC020 22/20 A2995 RMK AO2 =
2018-09-22 01:55 METAR KMMU 220555Z AUTO 22006KT 10SM OVC018 22/20 A2995 RMK AO2 =
2018-09-22 01:35 METAR KMMU 220535Z AUTO 22006KT 10SM OVC018 22/20 A2995 RMK AO2 =
2018-09-22 01:15 METAR KMMU 220515Z AUTO 22004KT 10SM OVC018 21/20 A2995 RMK AO2 =
2018-09-22 00:55 METAR KMMU 220455Z AUTO 21005KT 10SM OVC016 21/20 A2996 RMK AO2 =
2018-09-22 00:35 METAR KMMU 220435Z AUTO 22004KT 10SM BKN018 OVC022 21/20 A2996 RMK AO2 =
2018-09-22 00:15 METAR KMMU 220415Z AUTO 19004KT 10SM OVC022 21/19 A2996 RMK AO2 =
2018-09-21 23:55 METAR KMMU 220355Z AUTO 20004KT 10SM SCT018 OVC024 21/19 A2997 RMK AO2 =
2018-09-21 23:35 METAR KMMU 220335Z AUTO 19004KT 10SM SCT018 OVC026 21/19 A2999 RMK AO2 =
2018-09-21 23:15 METAR KMMU 220315Z AUTO 20006KT 160V220 10SM OVC026 21/19 A2999 RMK AO2 =
2018-09-21 22:55 METAR KMMU 220255Z AUTO 20007KT 10SM OVC028 21/19 A3000 RMK AO2 =

Support USWX by starting your Amazon purchase here.